createdAt,value
2019-04-20T18:30:27.425Z,25.70
2019-04-20T18:33:40.443Z,27.60
2019-04-20T18:36:13.928Z,27.00
2019-04-20T18:38:46.768Z,26.00
2019-04-20T18:41:21.001Z,25.20
2019-04-20T18:43:48.829Z,24.60
2019-04-20T18:46:39.250Z,24.20
2019-04-20T18:49:10.305Z,23.90
2019-04-20T18:51:25.951Z,23.60
2019-04-20T18:54:05.754Z,23.40
2019-04-20T18:56:33.043Z,23.10
2019-04-20T18:58:58.877Z,22.90
2019-04-20T19:01:30.916Z,22.60
2019-04-20T19:04:01.692Z,22.50
2019-04-20T19:06:31.805Z,22.40
2019-04-20T19:09:00.901Z,22.20
2019-04-20T19:11:30.900Z,22.00
2019-04-20T19:14:27.595Z,21.90
2019-04-20T19:17:00.392Z,21.70
2019-04-20T19:19:32.007Z,21.60
2019-04-20T19:21:54.170Z,21.50
2019-04-20T19:24:27.665Z,21.50
2019-04-20T19:26:58.329Z,21.50
2019-04-20T19:29:33.339Z,21.30
2019-04-20T19:32:23.866Z,21.20
2019-04-20T19:34:50.041Z,21.10
2019-04-20T19:37:15.735Z,21.00
2019-04-20T19:39:50.659Z,20.90
2019-04-20T19:42:27.645Z,20.80
2019-04-20T19:44:53.824Z,20.70
2019-04-20T19:47:32.601Z,20.60
2019-04-20T19:49:51.783Z,20.60
2019-04-20T19:52:51.765Z,20.50
2019-04-20T19:55:02.946Z,20.40
2019-04-20T19:57:31.051Z,20.40
2019-04-20T19:59:47.167Z,20.40
2019-04-20T20:02:13.937Z,20.30
2019-04-20T20:04:49.195Z,20.20
2019-04-20T20:07:22.026Z,20.40
2019-04-20T20:09:53.013Z,20.30
2019-04-20T20:12:23.281Z,20.30
2019-04-20T20:14:55.228Z,20.20
2019-04-20T20:17:43.748Z,20.10
2019-04-20T20:20:26.288Z,20.00
2019-04-20T20:22:37.182Z,19.90
2019-04-20T20:25:07.278Z,19.80
2019-04-20T20:27:52.429Z,19.70
2019-04-20T20:30:27.914Z,19.80
2019-04-20T20:33:13.885Z,19.70
2019-04-20T20:35:45.472Z,19.70
2019-04-20T20:38:19.103Z,19.70
2019-04-20T20:40:58.966Z,19.70
2019-04-20T20:43:34.498Z,19.70
2019-04-20T20:46:04.992Z,19.60
2019-04-20T20:48:49.450Z,19.70
2019-04-20T20:51:32.426Z,19.70
2019-04-20T20:53:50.932Z,19.60
2019-04-20T20:56:22.099Z,19.50
2019-04-20T20:58:57.861Z,19.40
2019-04-20T21:01:25.389Z,19.40
2019-04-20T21:03:58.450Z,19.40
2019-04-20T21:06:31.150Z,19.30
2019-04-20T21:09:06.368Z,19.40
2019-04-20T21:11:42.182Z,19.40
2019-04-20T21:14:13.578Z,19.50
2019-04-20T21:17:15.194Z,19.30
2019-04-20T21:19:58.366Z,19.30
2019-04-20T21:22:19.134Z,19.30
2019-04-20T21:24:51.337Z,19.20
2019-04-20T21:27:24.089Z,19.30
2019-04-20T21:29:58.217Z,19.40
2019-04-20T21:32:33.046Z,19.30
2019-04-20T21:35:07.302Z,19.30
2019-04-20T21:37:41.380Z,19.20
2019-04-20T21:40:23.514Z,19.10
2019-04-20T21:43:05.236Z,19.00
2019-04-20T21:45:37.453Z,19.00
2019-04-20T21:48:09.752Z,19.20
2019-04-20T21:50:59.723Z,19.00
2019-04-20T21:53:17.787Z,18.80
2019-04-20T21:55:43.732Z,18.70
2019-04-20T21:58:18.389Z,18.70
2019-04-20T22:01:08.862Z,18.70
2019-04-20T22:03:32.064Z,18.60
2019-04-20T22:06:06.773Z,18.60
2019-04-20T22:08:44.538Z,18.60
2019-04-20T22:11:18.224Z,18.70
2019-04-20T22:13:49.329Z,18.60
2019-04-20T22:16:20.067Z,18.50
2019-04-20T22:19:04.872Z,18.60
2019-04-20T22:21:35.484Z,18.60
2019-04-20T22:24:07.953Z,18.50
2019-04-20T22:26:32.715Z,18.50
2019-04-20T22:29:00.448Z,18.40
2019-04-20T22:31:36.039Z,18.30
2019-04-20T22:34:15.001Z,18.20
2019-04-20T22:36:44.808Z,18.20
2019-04-20T22:39:13.657Z,18.20
2019-04-20T22:41:52.447Z,18.10
2019-04-20T22:44:20.825Z,17.90
2019-04-20T22:46:50.069Z,17.90
2019-04-20T22:49:38.844Z,17.80
2019-04-20T22:51:59.518Z,17.80
2019-04-20T22:54:39.733Z,17.80
2019-04-20T22:57:05.932Z,17.70
2019-04-20T22:59:42.137Z,17.70
2019-04-20T23:02:08.456Z,17.70
2019-04-20T23:04:39.144Z,17.70
2019-04-20T23:07:10.714Z,17.70
2019-04-20T23:09:48.638Z,17.70
2019-04-20T23:12:20.681Z,17.60
2019-04-20T23:14:47.967Z,17.50
2019-04-20T23:17:28.362Z,17.60
2019-04-20T23:19:57.713Z,17.50
2019-04-20T23:22:34.809Z,17.50
2019-04-20T23:24:59.475Z,17.50
2019-04-20T23:27:31.535Z,17.40
2019-04-20T23:30:06.003Z,17.40
2019-04-20T23:32:30.250Z,17.30
2019-04-20T23:35:04.878Z,17.20
2019-04-20T23:37:33.144Z,17.20
2019-04-20T23:40:00.586Z,17.10
2019-04-20T23:42:36.048Z,17.00
2019-04-20T23:45:07.404Z,17.10
2019-04-20T23:47:45.674Z,17.00
2019-04-20T23:50:30.670Z,16.90
2019-04-20T23:52:59.679Z,16.90
2019-04-20T23:55:13.954Z,16.90
2019-04-20T23:57:41.989Z,16.70
